Terminal Aerodrome Forecast
Issued by NWS Grand Rapids, MI

Home | Current Version | Previous Version | Text Only | Print | Product List | Glossary On
Versions: 1 2 3 4 5 6 7 8 9 10 11 12 13 14 15 16 17 18 19 20 21 22 23
000
FTUS43 KGRR 052300
TAFGRR
TAF
KGRR 052329Z 0600/0624 08009KT P6SM BKN035 OVC120
     FM060200 09008KT P6SM OVC018
     FM060400 11006KT 5SM BR OVC008
     FM060700 12006KT 2SM BR OVC005
     FM061500 14007KT 5SM BR BKN012
     FM062000 17007KT P6SM BKN035=

USA.gov is the U.S. government's official web portal to all federal, state and local government web resources and services.